createdAt,value
2023-07-31T00:01:58.989Z,98301.00
2023-07-31T00:04:30.728Z,98305.08
2023-07-31T00:07:05.278Z,98304.58
2023-07-31T00:09:37.126Z,98305.60
2023-07-31T00:12:10.249Z,98307.73
2023-07-31T00:14:41.951Z,98312.51
2023-07-31T00:17:13.646Z,98307.80
2023-07-31T00:19:47.189Z,98307.55
2023-07-31T00:22:18.893Z,98310.49
2023-07-31T00:24:50.573Z,98311.66
2023-07-31T00:27:22.289Z,98311.80
2023-07-31T00:29:54.046Z,98309.84
2023-07-31T00:32:25.755Z,98307.55
2023-07-31T00:34:57.570Z,98315.05
2023-07-31T00:37:29.279Z,98317.14
2023-07-31T00:40:01.537Z,98319.05
2023-07-31T00:42:33.489Z,98323.80
2023-07-31T00:45:05.852Z,98323.82
2023-07-31T00:47:37.616Z,98322.98
2023-07-31T00:50:11.096Z,98325.49
2023-07-31T00:52:42.796Z,98324.93
2023-07-31T00:55:14.656Z,98328.08
2023-07-31T00:57:47.180Z,98327.02
2023-07-31T01:00:18.969Z,98325.45
2023-07-31T01:02:51.477Z,98327.30
2023-07-31T01:05:31.596Z,98328.66
2023-07-31T01:08:13.301Z,98329.67
2023-07-31T01:10:52.759Z,98330.55
2023-07-31T01:13:25.474Z,98335.09
2023-07-31T01:15:57.194Z,98333.30
2023-07-31T01:18:28.965Z,98335.01
2023-07-31T01:21:08.965Z,98339.24
2023-07-31T01:24:02.742Z,98337.86
2023-07-31T01:26:38.589Z,98344.91
2023-07-31T01:29:19.518Z,98351.97
2023-07-31T01:31:52.221Z,98349.23
2023-07-31T01:34:25.424Z,98347.38
2023-07-31T01:36:57.642Z,98345.84
2023-07-31T01:39:29.359Z,98345.34
2023-07-31T01:42:01.070Z,98349.88
2023-07-31T01:44:33.872Z,98346.33
2023-07-31T01:47:05.972Z,98349.49
2023-07-31T01:49:37.692Z,98352.14
2023-07-31T01:52:10.314Z,98356.47
2023-07-31T01:54:42.019Z,98358.42
2023-07-31T01:57:13.760Z,98357.33
2023-07-31T01:59:45.485Z,98361.15
2023-07-31T02:02:17.165Z,98361.77
2023-07-31T02:04:49.241Z,98364.33
2023-07-31T02:07:20.938Z,98368.39
2023-07-31T02:09:52.613Z,98369.91
2023-07-31T02:12:24.406Z,98372.21
2023-07-31T02:14:56.083Z,98371.88
2023-07-31T02:17:27.873Z,98372.80
2023-07-31T02:19:59.558Z,98370.99
2023-07-31T02:22:31.198Z,98370.98
2023-07-31T02:25:02.882Z,98372.57
2023-07-31T02:27:34.555Z,98374.49
2023-07-31T02:30:06.836Z,98379.36
2023-07-31T02:32:38.625Z,98386.47
2023-07-31T02:35:11.181Z,98389.55
2023-07-31T02:37:43.084Z,98398.78
2023-07-31T02:40:15.738Z,98402.34
2023-07-31T02:42:47.408Z,98405.59
2023-07-31T02:45:19.239Z,98405.69
2023-07-31T02:47:50.936Z,98405.19
2023-07-31T02:50:22.830Z,98407.02
2023-07-31T02:52:54.518Z,98404.10
2023-07-31T02:55:26.286Z,98404.70
2023-07-31T02:57:59.337Z,98406.63
2023-07-31T03:00:31.148Z,98405.63
2023-07-31T03:03:02.926Z,98406.16
2023-07-31T03:05:34.812Z,98406.86
2023-07-31T03:08:06.854Z,98400.91
2023-07-31T03:10:38.540Z,98404.55
2023-07-31T03:13:10.300Z,98409.92
2023-07-31T03:15:43.966Z,98416.02
2023-07-31T03:18:15.771Z,98416.16
2023-07-31T03:20:47.637Z,98422.52
2023-07-31T03:23:19.321Z,98428.16
2023-07-31T03:26:01.944Z,98429.93
2023-07-31T03:28:32.209Z,98429.44
2023-07-31T03:31:04.133Z,98429.21
2023-07-31T03:33:35.843Z,98432.24
2023-07-31T03:36:08.687Z,98435.77
2023-07-31T03:38:40.363Z,98439.50
2023-07-31T03:41:12.573Z,98437.02
2023-07-31T03:43:44.224Z,98432.15
2023-07-31T03:46:15.946Z,98434.76
2023-07-31T03:48:47.788Z,98434.55
2023-07-31T03:51:19.824Z,98437.50
2023-07-31T03:53:51.489Z,98436.33
2023-07-31T03:56:24.767Z,98434.77
2023-07-31T03:58:56.486Z,98435.17
2023-07-31T04:01:28.374Z,98440.55
2023-07-31T04:04:00.179Z,98440.27
2023-07-31T04:06:31.869Z,98444.64
2023-07-31T04:09:03.924Z,98440.09
2023-07-31T04:11:35.634Z,98445.09
2023-07-31T04:14:07.286Z,98451.21
2023-07-31T04:16:39.182Z,98453.02
2023-07-31T04:19:11.785Z,98457.58
2023-07-31T04:21:43.471Z,98454.90
2023-07-31T04:24:15.197Z,98455.34
2023-07-31T04:26:46.877Z,98454.61
2023-07-31T04:29:18.626Z,98457.98
2023-07-31T04:31:51.371Z,98457.86
2023-07-31T04:34:23.042Z,98456.33
2023-07-31T04:36:54.744Z,98454.53
2023-07-31T04:39:26.436Z,98455.14
2023-07-31T04:41:58.150Z,98453.16
2023-07-31T04:44:29.848Z,98456.10
2023-07-31T04:47:03.035Z,98455.63
2023-07-31T04:49:35.098Z,98458.32
2023-07-31T04:52:07.983Z,98452.89
2023-07-31T04:54:39.669Z,98450.34
2023-07-31T04:57:11.916Z,98455.50
2023-07-31T04:59:43.606Z,98452.59
2023-07-31T05:02:15.450Z,98454.89
2023-07-31T05:04:47.211Z,98457.92
2023-07-31T05:07:19.047Z,98460.30
2023-07-31T05:09:50.736Z,98462.89
2023-07-31T05:12:22.441Z,98462.62
2023-07-31T05:14:54.059Z,98468.02
2023-07-31T05:17:25.766Z,98461.33
2023-07-31T05:19:57.451Z,98462.73
2023-07-31T05:22:29.113Z,98461.13
2023-07-31T05:25:00.935Z,98461.54
2023-07-31T05:27:33.441Z,98462.93
2023-07-31T05:30:05.437Z,98462.15
2023-07-31T05:32:37.267Z,98470.81
2023-07-31T05:35:10.171Z,98469.64
2023-07-31T05:37:41.881Z,98472.67
2023-07-31T05:40:14.364Z,98471.30
2023-07-31T05:42:46.146Z,98471.15
2023-07-31T05:45:17.935Z,98472.63
2023-07-31T05:47:49.700Z,98470.43
2023-07-31T05:50:21.497Z,98470.74
2023-07-31T05:52:53.228Z,98471.12
2023-07-31T05:55:25.070Z,98471.91
2023-07-31T05:57:58.074Z,98472.69
2023-07-31T06:00:31.397Z,98476.00
2023-07-31T06:03:03.200Z,98478.23
2023-07-31T06:05:35.152Z,98478.71
2023-07-31T06:08:07.179Z,98476.23
2023-07-31T06:10:38.928Z,98474.68
2023-07-31T06:13:10.709Z,98475.53
2023-07-31T06:15:42.467Z,98474.19
2023-07-31T06:18:14.208Z,98469.07
2023-07-31T06:20:45.963Z,98473.06
2023-07-31T06:23:19.753Z,98473.89
2023-07-31T06:25:51.579Z,98470.77
2023-07-31T06:28:23.575Z,98471.62
2023-07-31T06:30:55.330Z,98468.01
2023-07-31T06:33:27.355Z,98472.32
2023-07-31T06:35:59.080Z,98468.96
2023-07-31T06:38:30.991Z,98469.37
2023-07-31T06:41:02.886Z,98463.95
2023-07-31T06:43:34.649Z,98461.28
2023-07-31T06:46:09.987Z,98459.81
2023-07-31T06:48:41.748Z,98461.33
2023-07-31T06:51:13.482Z,98455.52
2023-07-31T06:53:46.318Z,98454.06
2023-07-31T06:56:18.164Z,98456.08
2023-07-31T06:58:49.804Z,98456.25
2023-07-31T07:01:21.610Z,98459.29
2023-07-31T07:03:53.408Z,98457.67
2023-07-31T07:06:25.696Z,98460.02
2023-07-31T07:08:57.477Z,98452.88
2023-07-31T07:11:29.344Z,98452.45
2023-07-31T07:14:01.640Z,98451.55
2023-07-31T07:16:33.406Z,98445.88
2023-07-31T07:19:05.577Z,98441.81
2023-07-31T07:21:37.415Z,98444.48
2023-07-31T07:24:09.477Z,98441.23
2023-07-31T07:26:41.515Z,98434.00
2023-07-31T07:29:13.518Z,98436.11
2023-07-31T07:31:45.297Z,98434.77
2023-07-31T07:34:16.992Z,98438.86
2023-07-31T07:36:48.720Z,98439.15
2023-07-31T07:39:20.407Z,98436.73
2023-07-31T07:41:52.150Z,98436.73
2023-07-31T07:44:23.906Z,98438.58
2023-07-31T07:46:55.574Z,98440.89
2023-07-31T07:49:27.390Z,98437.98
2023-07-31T07:51:59.093Z,98442.29
2023-07-31T07:54:30.818Z,98443.14
2023-07-31T07:57:02.846Z,98442.58
2023-07-31T07:59:34.589Z,98441.59
2023-07-31T08:02:06.591Z,98442.84
2023-07-31T08:04:38.228Z,98446.17
2023-07-31T08:07:10.058Z,98445.30
2023-07-31T08:09:42.187Z,98447.20
2023-07-31T08:12:13.860Z,98450.19
2023-07-31T08:14:45.572Z,98449.77
2023-07-31T08:17:17.300Z,98446.88
2023-07-31T08:19:49.155Z,98442.58
2023-07-31T08:22:20.910Z,98448.02
2023-07-31T08:24:52.687Z,98448.76
2023-07-31T08:27:24.578Z,98454.46
2023-07-31T08:29:56.894Z,98454.87
2023-07-31T08:32:28.692Z,98458.59
2023-07-31T08:35:00.424Z,98453.21
2023-07-31T08:37:32.168Z,98452.47
2023-07-31T08:40:08.011Z,98456.71
2023-07-31T08:42:47.423Z,98459.46
2023-07-31T08:45:20.638Z,98461.55
2023-07-31T08:47:54.419Z,98460.80
2023-07-31T08:50:26.276Z,98460.67
2023-07-31T08:52:59.053Z,98460.59
2023-07-31T08:55:33.231Z,98456.17
2023-07-31T08:58:06.863Z,98455.04
2023-07-31T09:00:40.142Z,98453.48
2023-07-31T09:03:15.581Z,98456.35
2023-07-31T09:05:48.872Z,98445.45
2023-07-31T09:08:22.881Z,98448.88
2023-07-31T09:10:55.887Z,98447.71
2023-07-31T09:13:27.729Z,98444.11
2023-07-31T09:15:59.607Z,98440.48
2023-07-31T09:18:31.374Z,98444.33
2023-07-31T09:21:08.150Z,98442.77
2023-07-31T09:23:49.024Z,98446.20
2023-07-31T09:26:34.864Z,98446.81
2023-07-31T09:29:09.367Z,98441.91
2023-07-31T09:31:46.324Z,98443.28
2023-07-31T09:34:18.545Z,98437.41
2023-07-31T09:36:54.596Z,98439.39
2023-07-31T09:39:26.321Z,98434.50
2023-07-31T09:41:59.383Z,98433.83
2023-07-31T09:44:43.170Z,98434.58
2023-07-31T09:47:26.685Z,98430.83
2023-07-31T09:49:58.846Z,98422.41
2023-07-31T09:52:30.939Z,98424.98
2023-07-31T09:55:02.753Z,98424.48
2023-07-31T09:57:35.311Z,98421.39
2023-07-31T10:00:10.406Z,98424.38
2023-07-31T10:02:43.304Z,98424.20
2023-07-31T10:05:17.056Z,98428.17
2023-07-31T10:07:53.673Z,98427.58
2023-07-31T10:10:27.181Z,98421.07
2023-07-31T10:13:01.143Z,98416.69
2023-07-31T10:15:34.009Z,98410.70
2023-07-31T10:18:07.895Z,98410.48
2023-07-31T10:20:40.302Z,98409.35
2023-07-31T10:23:12.793Z,98408.69
2023-07-31T10:25:46.140Z,98401.60
2023-07-31T10:28:18.023Z,98404.25
2023-07-31T10:30:51.931Z,98396.20
2023-07-31T10:33:23.942Z,98389.84
2023-07-31T10:36:17.859Z,98389.20
2023-07-31T10:38:52.823Z,98386.45
2023-07-31T10:41:32.276Z,98387.59
2023-07-31T10:44:04.770Z,98383.91
2023-07-31T10:46:36.581Z,98383.22
2023-07-31T10:49:08.303Z,98386.06
2023-07-31T10:51:42.768Z,98384.48
2023-07-31T10:54:20.312Z,98386.45
2023-07-31T10:56:54.178Z,98380.97
2023-07-31T10:59:36.619Z,98379.10
2023-07-31T11:02:25.686Z,98375.27
2023-07-31T11:05:13.730Z,98368.95
2023-07-31T11:07:52.084Z,98367.55
2023-07-31T11:10:26.816Z,98364.73
2023-07-31T11:12:58.582Z,98371.79
2023-07-31T11:15:31.748Z,98362.45
2023-07-31T11:18:06.437Z,98352.72
2023-07-31T11:20:39.895Z,98351.36
2023-07-31T11:23:13.448Z,98347.08
2023-07-31T11:25:45.687Z,98350.88
2023-07-31T11:28:18.559Z,98352.58
2023-07-31T11:30:50.542Z,98351.21
2023-07-31T11:33:22.320Z,98345.52
2023-07-31T11:35:54.436Z,98338.55
2023-07-31T11:38:27.764Z,98341.55
2023-07-31T11:41:03.438Z,98344.30
2023-07-31T11:43:37.656Z,98343.59
2023-07-31T11:46:09.418Z,98333.55
2023-07-31T11:48:41.871Z,98332.64
2023-07-31T11:51:16.376Z,98328.50
2023-07-31T11:53:52.481Z,98331.95
2023-07-31T11:56:23.276Z,98326.36
2023-07-31T11:58:57.326Z,98321.95
2023-07-31T12:01:30.200Z,98321.80
2023-07-31T12:04:02.253Z,98322.92
2023-07-31T12:06:40.234Z,98320.89
2023-07-31T12:09:12.227Z,98318.08
2023-07-31T12:11:50.655Z,98311.02
2023-07-31T12:14:29.681Z,98305.42
2023-07-31T12:17:03.475Z,98304.47
2023-07-31T12:19:36.226Z,98305.59
2023-07-31T12:22:15.285Z,98300.05
2023-07-31T12:24:47.742Z,98298.05
2023-07-31T12:27:19.779Z,98289.02
2023-07-31T12:29:51.460Z,98288.83
2023-07-31T12:32:25.155Z,98289.56
2023-07-31T12:34:56.925Z,98288.39
2023-07-31T12:37:28.943Z,98282.77
2023-07-31T12:40:08.604Z,98280.55
2023-07-31T12:42:40.711Z,98276.85
2023-07-31T12:45:13.037Z,98275.54
2023-07-31T12:47:44.761Z,98275.15
2023-07-31T12:50:16.521Z,98275.45
2023-07-31T12:52:48.266Z,98277.22
2023-07-31T12:55:20.417Z,98267.33
2023-07-31T12:57:52.556Z,98277.05
2023-07-31T13:00:27.359Z,98274.34
2023-07-31T13:02:59.430Z,98275.50
2023-07-31T13:05:31.556Z,98270.65
2023-07-31T13:08:03.226Z,98267.21
2023-07-31T13:10:35.007Z,98265.39
2023-07-31T13:13:06.703Z,98264.08
2023-07-31T13:15:38.491Z,98259.61
2023-07-31T13:18:10.221Z,98255.56
2023-07-31T13:20:41.907Z,98248.21
2023-07-31T13:23:13.658Z,98250.80
2023-07-31T13:25:45.478Z,98249.62
2023-07-31T13:28:17.349Z,98250.21
2023-07-31T13:30:49.022Z,98246.22
2023-07-31T13:33:35.555Z,98243.45
2023-07-31T13:36:08.533Z,98244.39
2023-07-31T13:38:40.183Z,98239.02
2023-07-31T13:41:11.858Z,98237.69
2023-07-31T13:43:43.566Z,98231.46
2023-07-31T13:46:15.325Z,98223.86
2023-07-31T13:48:47.077Z,98225.36
2023-07-31T13:51:18.788Z,98224.60
2023-07-31T13:53:50.476Z,98224.72
2023-07-31T13:56:22.142Z,98224.22
2023-07-31T13:58:54.217Z,98224.41
2023-07-31T14:01:26.335Z,98221.42
2023-07-31T14:03:58.151Z,98217.48
2023-07-31T14:06:29.950Z,98222.73
2023-07-31T14:09:01.617Z,98223.35
2023-07-31T14:11:34.450Z,98227.06
2023-07-31T14:14:06.727Z,98224.84
2023-07-31T14:16:38.954Z,98219.52
2023-07-31T14:19:11.285Z,98216.42
2023-07-31T14:21:43.686Z,98218.33
2023-07-31T14:24:17.379Z,98221.64
2023-07-31T14:26:49.347Z,98218.98
2023-07-31T14:29:21.071Z,98217.66
2023-07-31T14:31:52.836Z,98218.13
2023-07-31T14:34:24.556Z,98221.94
2023-07-31T14:36:56.331Z,98221.23
2023-07-31T14:39:28.005Z,98220.02
2023-07-31T14:44:39.211Z,98220.65
2023-07-31T14:47:11.122Z,98213.51
2023-07-31T14:49:42.837Z,98210.45
2023-07-31T14:52:14.601Z,98208.20
2023-07-31T14:54:47.617Z,98206.88
2023-07-31T14:57:19.446Z,98213.25
2023-07-31T14:59:51.095Z,98213.05
2023-07-31T15:02:23.431Z,98214.98
2023-07-31T15:04:55.128Z,98209.11
2023-07-31T15:07:26.919Z,98207.61
2023-07-31T15:09:58.616Z,98206.38
2023-07-31T15:12:30.964Z,98204.98
2023-07-31T15:15:02.729Z,98210.60
2023-07-31T15:17:34.542Z,98204.91
2023-07-31T15:20:07.682Z,98202.36
2023-07-31T15:22:39.415Z,98198.43
2023-07-31T15:25:12.305Z,98194.96
2023-07-31T15:27:43.979Z,98194.73
2023-07-31T15:30:15.836Z,98193.77
2023-07-31T15:32:49.760Z,98188.03
2023-07-31T15:35:22.783Z,98185.87
2023-07-31T15:37:54.640Z,98186.48
2023-07-31T15:40:26.304Z,98181.08
2023-07-31T15:42:58.049Z,98177.77
2023-07-31T15:45:29.771Z,98172.84
2023-07-31T15:48:01.493Z,98173.95
2023-07-31T15:50:33.254Z,98176.48
2023-07-31T15:53:05.010Z,98175.69
2023-07-31T15:55:36.835Z,98175.14
2023-07-31T15:58:08.581Z,98170.26
2023-07-31T16:00:40.335Z,98169.98
2023-07-31T16:03:34.750Z,98168.96
2023-07-31T16:06:06.598Z,98160.23
2023-07-31T16:08:42.064Z,98160.13
2023-07-31T16:11:13.962Z,98155.80
2023-07-31T16:13:45.713Z,98157.33
2023-07-31T16:16:17.519Z,98153.81
2023-07-31T16:18:49.327Z,98153.35
2023-07-31T16:21:21.187Z,98152.53
2023-07-31T16:23:52.935Z,98147.86
2023-07-31T16:26:24.641Z,98154.80
2023-07-31T16:28:56.324Z,98153.97
2023-07-31T16:31:31.161Z,98149.21
2023-07-31T16:34:06.674Z,98149.52
2023-07-31T16:36:38.619Z,98152.73
2023-07-31T16:39:10.504Z,98150.48
2023-07-31T16:41:42.507Z,98144.64
2023-07-31T16:44:17.425Z,98145.25
2023-07-31T16:46:49.397Z,98144.12
2023-07-31T16:49:21.161Z,98145.11
2023-07-31T16:51:53.499Z,98141.96
2023-07-31T16:54:25.191Z,98141.86
2023-07-31T16:57:00.135Z,98143.29
2023-07-31T16:59:32.593Z,98141.65
2023-07-31T17:02:04.529Z,98141.34
2023-07-31T17:04:36.681Z,98143.02
2023-07-31T17:07:08.579Z,98139.99
2023-07-31T17:09:40.360Z,98140.80
2023-07-31T17:12:12.441Z,98141.91
2023-07-31T17:14:44.242Z,98139.65
2023-07-31T17:17:15.912Z,98138.54
2023-07-31T17:19:47.619Z,98139.61
2023-07-31T17:22:19.327Z,98143.34
2023-07-31T17:24:51.009Z,98147.61
2023-07-31T17:27:24.506Z,98153.71
2023-07-31T17:29:57.424Z,98152.20
2023-07-31T17:32:29.144Z,98154.41
2023-07-31T17:35:00.850Z,98147.70
2023-07-31T17:37:32.548Z,98152.12
2023-07-31T17:40:04.997Z,98149.40
2023-07-31T17:42:36.743Z,98144.59
2023-07-31T17:45:10.304Z,98140.41
2023-07-31T17:47:41.973Z,98147.84
2023-07-31T17:50:13.994Z,98149.74
2023-07-31T17:52:45.678Z,98150.81
2023-07-31T17:55:17.528Z,98151.02
2023-07-31T17:57:49.212Z,98153.20
2023-07-31T18:00:23.574Z,98151.67
2023-07-31T18:02:55.408Z,98150.95
2023-07-31T18:05:27.210Z,98150.15
2023-07-31T18:07:58.952Z,98149.18
2023-07-31T18:10:30.674Z,98153.42
2023-07-31T18:13:02.544Z,98151.95
2023-07-31T18:15:34.289Z,98153.75
2023-07-31T18:18:06.152Z,98159.60
2023-07-31T18:20:40.368Z,98160.62
2023-07-31T18:23:12.107Z,98168.77
2023-07-31T18:25:44.823Z,98164.72
2023-07-31T18:28:16.605Z,98163.77
2023-07-31T18:30:48.374Z,98167.77
2023-07-31T18:33:20.069Z,98167.41
2023-07-31T18:35:51.805Z,98163.96
2023-07-31T18:38:23.501Z,98166.91
2023-07-31T18:40:55.169Z,98164.58
2023-07-31T18:43:26.938Z,98166.82
2023-07-31T18:45:58.651Z,98165.58
2023-07-31T18:48:31.725Z,98165.67
2023-07-31T18:51:03.693Z,98171.23
2023-07-31T18:53:35.367Z,98169.39
2023-07-31T18:56:07.473Z,98172.72
2023-07-31T18:58:39.211Z,98173.20
2023-07-31T19:01:10.948Z,98175.00
2023-07-31T19:03:42.668Z,98175.80
2023-07-31T19:06:14.438Z,98180.95
2023-07-31T19:08:46.417Z,98180.48
2023-07-31T19:11:31.256Z,98186.79
2023-07-31T19:14:04.709Z,98190.55
2023-07-31T19:16:36.524Z,98193.16
2023-07-31T19:19:08.320Z,98190.06
2023-07-31T19:21:40.047Z,98193.05
2023-07-31T19:24:11.763Z,98191.45
2023-07-31T19:26:44.638Z,98194.98
2023-07-31T19:29:16.345Z,98185.52
2023-07-31T19:31:48.058Z,98187.79
2023-07-31T19:34:19.773Z,98181.23
2023-07-31T19:36:51.477Z,98181.56
2023-07-31T19:39:23.174Z,98178.09
2023-07-31T19:41:54.837Z,98179.59
2023-07-31T19:44:26.633Z,98176.14
2023-07-31T19:46:58.291Z,98173.90
2023-07-31T19:49:30.717Z,98174.48
2023-07-31T19:52:02.369Z,98177.91
2023-07-31T19:54:34.120Z,98171.05
2023-07-31T19:57:06.498Z,98165.70
2023-07-31T19:59:38.199Z,98173.38
2023-07-31T20:02:10.180Z,98164.88
2023-07-31T20:04:41.936Z,98163.62
2023-07-31T20:07:13.688Z,98163.08
2023-07-31T20:09:45.453Z,98166.41
2023-07-31T20:12:17.223Z,98163.52
2023-07-31T20:14:49.986Z,98165.20
2023-07-31T20:17:21.773Z,98168.95
2023-07-31T20:19:53.448Z,98168.09
2023-07-31T20:22:25.355Z,98167.17
2023-07-31T20:24:57.104Z,98162.11
2023-07-31T20:27:28.764Z,98157.63
2023-07-31T20:30:00.729Z,98155.95
2023-07-31T20:32:32.634Z,98154.77
2023-07-31T20:35:04.769Z,98151.13
2023-07-31T20:37:36.483Z,98149.00
2023-07-31T20:40:11.251Z,98142.90
2023-07-31T20:42:42.953Z,98148.90
2023-07-31T20:45:15.502Z,98143.08
2023-07-31T20:47:47.503Z,98138.45
2023-07-31T20:50:19.436Z,98136.76
2023-07-31T20:52:51.229Z,98131.71
2023-07-31T20:55:22.948Z,98128.05
2023-07-31T20:57:55.916Z,98125.34
2023-07-31T21:00:27.845Z,98118.48
2023-07-31T21:02:59.723Z,98111.00
2023-07-31T21:05:31.551Z,98110.48
2023-07-31T21:08:04.052Z,98107.45
2023-07-31T21:10:39.725Z,98100.66
2023-07-31T21:13:11.479Z,98098.46
2023-07-31T21:15:48.201Z,98093.96
2023-07-31T21:18:20.005Z,98087.44
2023-07-31T21:20:51.814Z,98083.48
2023-07-31T21:23:23.505Z,98082.41
2023-07-31T21:25:55.470Z,98080.34
2023-07-31T21:28:27.239Z,98079.98
2023-07-31T21:30:58.947Z,98083.30
2023-07-31T21:33:32.946Z,98083.17
2023-07-31T21:36:05.187Z,98080.61
2023-07-31T21:38:36.977Z,98080.34
2023-07-31T21:41:08.648Z,98077.59
2023-07-31T21:43:40.314Z,98074.02
2023-07-31T21:46:12.057Z,98071.92
2023-07-31T21:48:43.777Z,98070.84
2023-07-31T21:51:15.472Z,98071.14
2023-07-31T21:53:47.226Z,98065.52
2023-07-31T21:56:19.019Z,98066.20
2023-07-31T21:58:50.672Z,98060.34
2023-07-31T22:01:22.507Z,98056.09
2023-07-31T22:03:54.249Z,98056.77
2023-07-31T22:06:26.023Z,98053.91
2023-07-31T22:08:57.732Z,98051.31
2023-07-31T22:11:29.484Z,98050.95
2023-07-31T22:14:01.397Z,98047.27
2023-07-31T22:16:34.616Z,98048.73
2023-07-31T22:19:06.439Z,98052.48
2023-07-31T22:21:38.559Z,98050.19
2023-07-31T22:24:10.226Z,98051.43
2023-07-31T22:26:42.172Z,98048.86
2023-07-31T22:29:14.760Z,98048.05
2023-07-31T22:31:46.465Z,98046.52
2023-07-31T22:34:18.215Z,98044.84
2023-07-31T22:36:49.952Z,98045.38
2023-07-31T22:39:21.699Z,98039.33
2023-07-31T22:41:53.420Z,98037.38
2023-07-31T22:44:25.296Z,98034.00
2023-07-31T22:46:56.987Z,98031.64
2023-07-31T22:49:28.677Z,98035.10
2023-07-31T22:52:00.535Z,98032.21
2023-07-31T22:54:32.269Z,98029.98
2023-07-31T22:57:04.128Z,98028.77
2023-07-31T22:59:36.035Z,98028.56
2023-07-31T23:02:09.679Z,98026.51
2023-07-31T23:04:42.189Z,98029.82
2023-07-31T23:07:13.906Z,98028.95
2023-07-31T23:09:45.541Z,98024.72
2023-07-31T23:12:17.208Z,98026.62
2023-07-31T23:14:48.987Z,98025.66
2023-07-31T23:17:20.687Z,98020.11
2023-07-31T23:19:52.380Z,98022.39
2023-07-31T23:22:24.074Z,98019.81
2023-07-31T23:24:56.903Z,98014.79
2023-07-31T23:27:28.650Z,98014.16
2023-07-31T23:30:00.634Z,98013.21
2023-07-31T23:32:32.688Z,98006.82
2023-07-31T23:35:04.747Z,98002.55
2023-07-31T23:37:36.419Z,97998.98
2023-07-31T23:40:09.970Z,97993.29
2023-07-31T23:42:41.910Z,97991.74
2023-07-31T23:45:16.262Z,97986.07
2023-07-31T23:47:48.010Z,97984.99
2023-07-31T23:50:19.929Z,97979.97
2023-07-31T23:52:51.755Z,97974.71
2023-07-31T23:55:23.626Z,97970.39
2023-07-31T23:57:55.845Z,97966.04
